sensor_id;sensor_type;location;lat;lon;timestamp;pressure;altitude;pressure_sealevel;temperature
62611;BMP280;48683;48.084;17.272;2023-07-29T00:02:03;99852.59;;;21.70
62611;BMP280;48683;48.084;17.272;2023-07-29T00:04:29;99848.91;;;21.73
62611;BMP280;48683;48.084;17.272;2023-07-29T00:06:55;99847.31;;;21.67
62611;BMP280;48683;48.084;17.272;2023-07-29T00:09:20;99848.16;;;21.73
62611;BMP280;48683;48.084;17.272;2023-07-29T00:11:45;99856.16;;;21.76
62611;BMP280;48683;48.084;17.272;2023-07-29T00:14:10;99855.97;;;21.65
62611;BMP280;48683;48.084;17.272;2023-07-29T00:16:35;99857.38;;;21.75
62611;BMP280;48683;48.084;17.272;2023-07-29T00:19:02;99860.31;;;21.72
62611;BMP280;48683;48.084;17.272;2023-07-29T00:21:27;99854.63;;;21.61
62611;BMP280;48683;48.084;17.272;2023-07-29T00:23:52;99858.81;;;21.71
62611;BMP280;48683;48.084;17.272;2023-07-29T00:26:18;99857.84;;;21.59
62611;BMP280;48683;48.084;17.272;2023-07-29T00:28:43;99860.66;;;21.65
62611;BMP280;48683;48.084;17.272;2023-07-29T00:31:08;99862.94;;;21.66
62611;BMP280;48683;48.084;17.272;2023-07-29T00:33:34;99855.84;;;21.60
62611;BMP280;48683;48.084;17.272;2023-07-29T00:35:59;99858.59;;;21.60
62611;BMP280;48683;48.084;17.272;2023-07-29T00:38:26;99855.03;;;21.68
62611;BMP280;48683;48.084;17.272;2023-07-29T00:40:52;99851.34;;;21.71
62611;BMP280;48683;48.084;17.272;2023-07-29T00:43:17;99845.88;;;21.71
62611;BMP280;48683;48.084;17.272;2023-07-29T00:45:42;99846.06;;;21.68
62611;BMP280;48683;48.084;17.272;2023-07-29T00:48:08;99836.09;;;21.65
62611;BMP280;48683;48.084;17.272;2023-07-29T00:50:34;99833.63;;;21.52
62611;BMP280;48683;48.084;17.272;2023-07-29T00:52:59;99844.03;;;21.63
62611;BMP280;48683;48.084;17.272;2023-07-29T00:55:25;99847.41;;;21.72
62611;BMP280;48683;48.084;17.272;2023-07-29T00:57:53;99852.88;;;21.72
62611;BMP280;48683;48.084;17.272;2023-07-29T01:00:19;99859.94;;;21.79
62611;BMP280;48683;48.084;17.272;2023-07-29T01:02:44;99858.63;;;21.89
62611;BMP280;48683;48.084;17.272;2023-07-29T01:05:13;99851.91;;;21.75
62611;BMP280;48683;48.084;17.272;2023-07-29T01:07:43;99855.13;;;21.74
62611;BMP280;48683;48.084;17.272;2023-07-29T01:10:11;99857.50;;;21.81
62611;BMP280;48683;48.084;17.272;2023-07-29T01:12:47;99862.66;;;21.79
62611;BMP280;48683;48.084;17.272;2023-07-29T01:15:24;99856.81;;;21.71
62611;BMP280;48683;48.084;17.272;2023-07-29T01:17:52;99856.72;;;21.66
62611;BMP280;48683;48.084;17.272;2023-07-29T01:20:19;99846.06;;;21.68
62611;BMP280;48683;48.084;17.272;2023-07-29T01:22:45;99843.81;;;21.66
62611;BMP280;48683;48.084;17.272;2023-07-29T01:25:11;99844.59;;;21.67
62611;BMP280;48683;48.084;17.272;2023-07-29T01:27:36;99843.13;;;21.42
62611;BMP280;48683;48.084;17.272;2023-07-29T01:30:01;99843.13;;;21.42
62611;BMP280;48683;48.084;17.272;2023-07-29T01:32:44;99843.13;;;21.42
62611;BMP280;48683;48.084;17.272;2023-07-29T01:35:15;99848.47;;;21.37
62611;BMP280;48683;48.084;17.272;2023-07-29T01:37:41;99849.69;;;21.36
62611;BMP280;48683;48.084;17.272;2023-07-29T01:40:06;99850.56;;;21.42
62611;BMP280;48683;48.084;17.272;2023-07-29T01:42:33;99853.22;;;21.51
62611;BMP280;48683;48.084;17.272;2023-07-29T01:44:59;99844.44;;;21.47
62611;BMP280;48683;48.084;17.272;2023-07-29T01:47:24;99840.13;;;21.55
62611;BMP280;48683;48.084;17.272;2023-07-29T01:49:49;99837.41;;;21.55
62611;BMP280;48683;48.084;17.272;2023-07-29T01:52:14;99838.31;;;21.52
62611;BMP280;48683;48.084;17.272;2023-07-29T01:54:40;99836.00;;;21.59
62611;BMP280;48683;48.084;17.272;2023-07-29T01:57:05;99833.28;;;21.59
62611;BMP280;48683;48.084;17.272;2023-07-29T01:59:30;99835.53;;;21.61
62611;BMP280;48683;48.084;17.272;2023-07-29T02:01:55;99839.78;;;21.62
62611;BMP280;48683;48.084;17.272;2023-07-29T02:04:20;99839.84;;;21.67
62611;BMP280;48683;48.084;17.272;2023-07-29T02:06:46;99833.19;;;21.68
62611;BMP280;48683;48.084;17.272;2023-07-29T02:09:11;99838.56;;;21.63
62611;BMP280;48683;48.084;17.272;2023-07-29T02:11:36;99836.97;;;21.71
62611;BMP280;48683;48.084;17.272;2023-07-29T02:14:01;99843.16;;;21.71
62611;BMP280;48683;48.084;17.272;2023-07-29T02:16:27;99848.91;;;21.73
62611;BMP280;48683;48.084;17.272;2023-07-29T02:18:52;99846.19;;;21.73
62611;BMP280;48683;48.084;17.272;2023-07-29T02:21:17;99840.16;;;21.69
62611;BMP280;48683;48.084;17.272;2023-07-29T02:23:42;99838.00;;;21.73
62611;BMP280;48683;48.084;17.272;2023-07-29T02:26:07;99841.66;;;21.70
62611;BMP280;48683;48.084;17.272;2023-07-29T02:28:33;99841.19;;;21.72
62611;BMP280;48683;48.084;17.272;2023-07-29T02:33:42;99842.88;;;21.69
62611;BMP280;48683;48.084;17.272;2023-07-29T02:36:07;99843.66;;;21.70
62611;BMP280;48683;48.084;17.272;2023-07-29T02:38:32;99836.84;;;21.65
62611;BMP280;48683;48.084;17.272;2023-07-29T02:40:57;99840.03;;;21.64
62611;BMP280;48683;48.084;17.272;2023-07-29T02:43:23;99847.00;;;21.50
62611;BMP280;48683;48.084;17.272;2023-07-29T02:45:48;99843.44;;;21.59
62611;BMP280;48683;48.084;17.272;2023-07-29T02:48:13;99842.19;;;21.60
62611;BMP280;48683;48.084;17.272;2023-07-29T02:50:38;99851.69;;;21.50
62611;BMP280;48683;48.084;17.272;2023-07-29T02:53:04;99843.06;;;21.51
62611;BMP280;48683;48.084;17.272;2023-07-29T02:55:29;99849.66;;;21.59
62611;BMP280;48683;48.084;17.272;2023-07-29T02:57:54;99846.94;;;21.59
62611;BMP280;48683;48.084;17.272;2023-07-29T03:00:19;99852.41;;;21.59
62611;BMP280;48683;48.084;17.272;2023-07-29T03:02:44;99841.53;;;21.50
62611;BMP280;48683;48.084;17.272;2023-07-29T03:05:10;99841.81;;;21.52
62611;BMP280;48683;48.084;17.272;2023-07-29T03:07:35;99844.91;;;21.45
62611;BMP280;48683;48.084;17.272;2023-07-29T03:10:00;99843.41;;;21.44
62611;BMP280;48683;48.084;17.272;2023-07-29T03:12:25;99846.66;;;21.34
62611;BMP280;48683;48.084;17.272;2023-07-29T03:14:51;99836.16;;;21.41
62611;BMP280;48683;48.084;17.272;2023-07-29T03:17:16;99844.44;;;21.32
62611;BMP280;48683;48.084;17.272;2023-07-29T03:19:42;99840.06;;;21.25
62611;BMP280;48683;48.084;17.272;2023-07-29T03:22:07;99826.66;;;21.13
62611;BMP280;48683;48.084;17.272;2023-07-29T03:24:32;99839.59;;;21.03
62611;BMP280;48683;48.084;17.272;2023-07-29T03:26:57;99840.53;;;21.00
62611;BMP280;48683;48.084;17.272;2023-07-29T03:29:23;99851.69;;;21.11
62611;BMP280;48683;48.084;17.272;2023-07-29T03:31:48;99859.69;;;21.15
62611;BMP280;48683;48.084;17.272;2023-07-29T03:34:13;99864.69;;;21.16
62611;BMP280;48683;48.084;17.272;2023-07-29T03:36:38;99860.47;;;21.06
62611;BMP280;48683;48.084;17.272;2023-07-29T03:39:03;99867.63;;;21.04
62611;BMP280;48683;48.084;17.272;2023-07-29T03:41:28;99860.81;;;20.99
62611;BMP280;48683;48.084;17.272;2023-07-29T03:43:54;99861.50;;;21.09
62611;BMP280;48683;48.084;17.272;2023-07-29T03:46:19;99871.28;;;21.24
62611;BMP280;48683;48.084;17.272;2023-07-29T03:48:46;99874.16;;;21.30
62611;BMP280;48683;48.084;17.272;2023-07-29T03:51:12;99864.56;;;21.35
62611;BMP280;48683;48.084;17.272;2023-07-29T03:53:37;99862.41;;;21.39
62611;BMP280;48683;48.084;17.272;2023-07-29T03:56:02;99867.06;;;21.23
62611;BMP280;48683;48.084;17.272;2023-07-29T03:58:27;99869.91;;;21.29
62611;BMP280;48683;48.084;17.272;2023-07-29T04:00:53;99877.91;;;21.33
62611;BMP280;48683;48.084;17.272;2023-07-29T04:03:18;99865.34;;;21.50
62611;BMP280;48683;48.084;17.272;2023-07-29T04:05:43;99868.25;;;21.46
62611;BMP280;48683;48.084;17.272;2023-07-29T04:08:09;99872.25;;;21.60
62611;BMP280;48683;48.084;17.272;2023-07-29T04:10:34;99876.03;;;21.62
62611;BMP280;48683;48.084;17.272;2023-07-29T04:13:00;99875.28;;;21.62
62611;BMP280;48683;48.084;17.272;2023-07-29T04:15:25;99879.69;;;21.59
62611;BMP280;48683;48.084;17.272;2023-07-29T04:17:50;99890.13;;;21.61
62611;BMP280;48683;48.084;17.272;2023-07-29T04:20:16;99895.41;;;21.64
62611;BMP280;48683;48.084;17.272;2023-07-29T04:22:41;99899.03;;;21.70
62611;BMP280;48683;48.084;17.272;2023-07-29T04:25:06;99896.63;;;21.63
62611;BMP280;48683;48.084;17.272;2023-07-29T04:27:32;99897.78;;;21.71
62611;BMP280;48683;48.084;17.272;2023-07-29T04:29:57;99901.84;;;21.76
62611;BMP280;48683;48.084;17.272;2023-07-29T04:32:22;99898.66;;;21.77
62611;BMP280;48683;48.084;17.272;2023-07-29T04:34:47;99898.09;;;21.88
62611;BMP280;48683;48.084;17.272;2023-07-29T04:37:12;99899.56;;;21.98
62611;BMP280;48683;48.084;17.272;2023-07-29T04:39:38;99907.66;;;22.07
62611;BMP280;48683;48.084;17.272;2023-07-29T04:42:03;99903.53;;;22.12
62611;BMP280;48683;48.084;17.272;2023-07-29T04:44:28;99908.16;;;22.06
62611;BMP280;48683;48.084;17.272;2023-07-29T04:46:53;99899.09;;;22.14
62611;BMP280;48683;48.084;17.272;2023-07-29T04:49:19;99910.69;;;22.24
62611;BMP280;48683;48.084;17.272;2023-07-29T04:51:44;99910.03;;;22.29
62611;BMP280;48683;48.084;17.272;2023-07-29T04:54:09;99917.56;;;22.34
62611;BMP280;48683;48.084;17.272;2023-07-29T04:56:34;99912.94;;;22.40
62611;BMP280;48683;48.084;17.272;2023-07-29T04:58:59;99920.66;;;22.42
62611;BMP280;48683;48.084;17.272;2023-07-29T05:01:24;99919.63;;;22.39
62611;BMP280;48683;48.084;17.272;2023-07-29T05:03:50;99918.41;;;22.40
62611;BMP280;48683;48.084;17.272;2023-07-29T05:06:15;99931.97;;;22.49
62611;BMP280;48683;48.084;17.272;2023-07-29T05:08:40;99934.72;;;22.49
62611;BMP280;48683;48.084;17.272;2023-07-29T05:11:05;99937.66;;;22.60
62611;BMP280;48683;48.084;17.272;2023-07-29T05:13:31;99942.91;;;22.64
62611;BMP280;48683;48.084;17.272;2023-07-29T05:15:56;99934.81;;;22.69
62611;BMP280;48683;48.084;17.272;2023-07-29T05:18:21;99933.59;;;22.70
62611;BMP280;48683;48.084;17.272;2023-07-29T05:20:46;99951.53;;;22.72
62611;BMP280;48683;48.084;17.272;2023-07-29T05:23:12;99939.13;;;22.61
62611;BMP280;48683;48.084;17.272;2023-07-29T05:25:37;99941.09;;;22.61
62611;BMP280;48683;48.084;17.272;2023-07-29T05:28:03;99951.03;;;22.58
62611;BMP280;48683;48.084;17.272;2023-07-29T05:30:28;99945.19;;;22.51
62611;BMP280;48683;48.084;17.272;2023-07-29T05:32:56;99941.03;;;22.55
62611;BMP280;48683;48.084;17.272;2023-07-29T05:35:21;99947.63;;;22.63
62611;BMP280;48683;48.084;17.272;2023-07-29T05:37:46;99947.34;;;22.61
62611;BMP280;48683;48.084;17.272;2023-07-29T05:40:12;99947.81;;;22.60
62611;BMP280;48683;48.084;17.272;2023-07-29T05:42:37;99945.44;;;22.53
62611;BMP280;48683;48.084;17.272;2023-07-29T05:45:02;99951.47;;;22.57
62611;BMP280;48683;48.084;17.272;2023-07-29T05:47:27;99945.34;;;22.62
62611;BMP280;48683;48.084;17.272;2023-07-29T05:49:52;99949.72;;;22.68
62611;BMP280;48683;48.084;17.272;2023-07-29T05:52:18;99953.31;;;22.75
62611;BMP280;48683;48.084;17.272;2023-07-29T05:54:43;99945.56;;;22.73
62611;BMP280;48683;48.084;17.272;2023-07-29T05:57:09;99951.88;;;22.79
62611;BMP280;48683;48.084;17.272;2023-07-29T05:59:34;99946.22;;;22.83
62611;BMP280;48683;48.084;17.272;2023-07-29T06:01:59;99940.94;;;22.79
62611;BMP280;48683;48.084;17.272;2023-07-29T06:04:25;99935.53;;;22.85
62611;BMP280;48683;48.084;17.272;2023-07-29T06:06:50;99940.91;;;22.94
62611;BMP280;48683;48.084;17.272;2023-07-29T06:09:15;99938.44;;;22.96
62611;BMP280;48683;48.084;17.272;2023-07-29T06:11:40;99940.25;;;22.99
62611;BMP280;48683;48.084;17.272;2023-07-29T06:14:05;99940.44;;;22.95
62611;BMP280;48683;48.084;17.272;2023-07-29T06:16:31;99941.06;;;23.05
62611;BMP280;48683;48.084;17.272;2023-07-29T06:18:56;99940.19;;;23.13
62611;BMP280;48683;48.084;17.272;2023-07-29T06:21:21;99941.00;;;23.19
62611;BMP280;48683;48.084;17.272;2023-07-29T06:23:47;99943.75;;;23.19
62611;BMP280;48683;48.084;17.272;2023-07-29T06:26:12;99948.34;;;23.28
62611;BMP280;48683;48.084;17.272;2023-07-29T06:28:37;99948.97;;;23.38
62611;BMP280;48683;48.084;17.272;2023-07-29T06:31:02;99942.06;;;23.42
62611;BMP280;48683;48.084;17.272;2023-07-29T06:33:28;99943.59;;;23.43
62611;BMP280;48683;48.084;17.272;2023-07-29T06:35:53;99948.94;;;23.52
62611;BMP280;48683;48.084;17.272;2023-07-29T06:38:18;99947.56;;;23.62
62611;BMP280;48683;48.084;17.272;2023-07-29T06:40:46;99942.69;;;23.72
62611;BMP280;48683;48.084;17.272;2023-07-29T06:43:12;99936.59;;;23.83
62611;BMP280;48683;48.084;17.272;2023-07-29T06:45:37;99932.72;;;23.95
62611;BMP280;48683;48.084;17.272;2023-07-29T06:48:02;99938.22;;;23.95
62611;BMP280;48683;48.084;17.272;2023-07-29T06:50:27;99939.88;;;24.12
62611;BMP280;48683;48.084;17.272;2023-07-29T06:52:52;99938.94;;;24.16
62611;BMP280;48683;48.084;17.272;2023-07-29T06:55:18;99927.50;;;24.48
62611;BMP280;48683;48.084;17.272;2023-07-29T06:57:43;99924.38;;;24.92
62611;BMP280;48683;48.084;17.272;2023-07-29T07:00:08;99927.03;;;25.24
62611;BMP280;48683;48.084;17.272;2023-07-29T07:02:34;99916.91;;;24.98
62611;BMP280;48683;48.084;17.272;2023-07-29T07:04:59;99920.22;;;25.08
62611;BMP280;48683;48.084;17.272;2023-07-29T07:07:24;99912.59;;;24.86
62611;BMP280;48683;48.084;17.272;2023-07-29T07:09:50;99915.91;;;24.65
62611;BMP280;48683;48.084;17.272;2023-07-29T07:12:15;99913.38;;;24.92
62611;BMP280;48683;48.084;17.272;2023-07-29T07:14:40;99918.75;;;25.18
62611;BMP280;48683;48.084;17.272;2023-07-29T07:17:05;99914.63;;;25.39
62611;BMP280;48683;48.084;17.272;2023-07-29T07:19:30;99915.56;;;25.31
62611;BMP280;48683;48.084;17.272;2023-07-29T07:21:55;99913.38;;;25.40
62611;BMP280;48683;48.084;17.272;2023-07-29T07:24:21;99911.56;;;25.26
62611;BMP280;48683;48.084;17.272;2023-07-29T07:26:46;99903.59;;;25.28
62611;BMP280;48683;48.084;17.272;2023-07-29T07:29:11;99907.81;;;25.29
62611;BMP280;48683;48.084;17.272;2023-07-29T07:31:36;99897.81;;;25.26
62611;BMP280;48683;48.084;17.272;2023-07-29T07:34:01;99903.59;;;25.28
62611;BMP280;48683;48.084;17.272;2023-07-29T07:36:30;99900.34;;;25.30
62611;BMP280;48683;48.084;17.272;2023-07-29T07:38:55;99902.56;;;25.20
62611;BMP280;48683;48.084;17.272;2023-07-29T07:41:21;99901.47;;;25.07
62611;BMP280;48683;48.084;17.272;2023-07-29T07:43:46;99895.03;;;25.10
62611;BMP280;48683;48.084;17.272;2023-07-29T07:46:12;99888.25;;;25.11
62611;BMP280;48683;48.084;17.272;2023-07-29T07:48:37;99891.97;;;25.02
62611;BMP280;48683;48.084;17.272;2023-07-29T07:51:10;99893.75;;;25.05
62611;BMP280;48683;48.084;17.272;2023-07-29T07:53:35;99896.78;;;25.13
62611;BMP280;48683;48.084;17.272;2023-07-29T07:56:00;99885.28;;;25.09
62611;BMP280;48683;48.084;17.272;2023-07-29T07:58:25;99887.44;;;24.93
62611;BMP280;48683;48.084;17.272;2023-07-29T08:00:51;99887.22;;;24.97
62611;BMP280;48683;48.084;17.272;2023-07-29T08:03:17;99885.22;;;25.03
62611;BMP280;48683;48.084;17.272;2023-07-29T08:05:42;99880.28;;;25.07
62611;BMP280;48683;48.084;17.272;2023-07-29T08:08:07;99883.47;;;25.00
62611;BMP280;48683;48.084;17.272;2023-07-29T08:10:32;99879.97;;;24.94
62611;BMP280;48683;48.084;17.272;2023-07-29T08:12:57;99882.00;;;25.04
62611;BMP280;48683;48.084;17.272;2023-07-29T08:15:23;99874.53;;;25.11
62611;BMP280;48683;48.084;17.272;2023-07-29T08:17:48;99874.53;;;25.11
62611;BMP280;48683;48.084;17.272;2023-07-29T08:20:13;99876.81;;;25.12
62611;BMP280;48683;48.084;17.272;2023-07-29T08:22:38;99871.03;;;25.10
62611;BMP280;48683;48.084;17.272;2023-07-29T08:25:04;99869.84;;;25.17
62611;BMP280;48683;48.084;17.272;2023-07-29T08:27:29;99869.09;;;25.22
62611;BMP280;48683;48.084;17.272;2023-07-29T08:29:54;99876.13;;;25.28
62611;BMP280;48683;48.084;17.272;2023-07-29T08:32:19;99866.19;;;25.42
62611;BMP280;48683;48.084;17.272;2023-07-29T08:34:45;99869.94;;;25.50
62611;BMP280;48683;48.084;17.272;2023-07-29T08:37:10;99867.28;;;25.67
62611;BMP280;48683;48.084;17.272;2023-07-29T08:39:35;99871.56;;;25.79
62611;BMP280;48683;48.084;17.272;2023-07-29T08:42:01;99860.56;;;25.84
62611;BMP280;48683;48.084;17.272;2023-07-29T08:44:30;99859.06;;;25.89
62611;BMP280;48683;48.084;17.272;2023-07-29T08:46:59;99861.31;;;25.90
62611;BMP280;48683;48.084;17.272;2023-07-29T08:49:24;99857.56;;;25.93
62611;BMP280;48683;48.084;17.272;2023-07-29T08:51:52;99847.56;;;26.07
62611;BMP280;48683;48.084;17.272;2023-07-29T08:54:18;99839.81;;;26.50
62611;BMP280;48683;48.084;17.272;2023-07-29T08:56:43;99847.03;;;26.70
62611;BMP280;48683;48.084;17.272;2023-07-29T08:59:09;99846.78;;;26.73
62611;BMP280;48683;48.084;17.272;2023-07-29T09:01:35;99852.81;;;26.61
62611;BMP280;48683;48.084;17.272;2023-07-29T09:04:00;99852.31;;;26.68
62611;BMP280;48683;48.084;17.272;2023-07-29T09:06:26;99857.88;;;27.25
62611;BMP280;48683;48.084;17.272;2023-07-29T09:08:53;99849.28;;;27.40
62611;BMP280;48683;48.084;17.272;2023-07-29T09:11:18;99847.34;;;27.35
62611;BMP280;48683;48.084;17.272;2023-07-29T09:13:44;99851.28;;;27.51
62611;BMP280;48683;48.084;17.272;2023-07-29T09:16:09;99847.63;;;27.78
62611;BMP280;48683;48.084;17.272;2023-07-29T09:18:34;99848.81;;;27.82
62611;BMP280;48683;48.084;17.272;2023-07-29T09:21:00;99844.22;;;27.96
62611;BMP280;48683;48.084;17.272;2023-07-29T09:23:28;99851.75;;;28.25
62611;BMP280;48683;48.084;17.272;2023-07-29T09:26:03;99844.53;;;28.22
62611;BMP280;48683;48.084;17.272;2023-07-29T09:28:28;99843.13;;;28.40
62611;BMP280;48683;48.084;17.272;2023-07-29T09:30:56;99850.28;;;28.49
62611;BMP280;48683;48.084;17.272;2023-07-29T09:33:22;99844.06;;;28.18
62611;BMP280;48683;48.084;17.272;2023-07-29T09:35:50;99830.78;;;28.41
62611;BMP280;48683;48.084;17.272;2023-07-29T09:38:16;99828.75;;;28.47
62611;BMP280;48683;48.084;17.272;2023-07-29T09:40:41;99834.16;;;28.58
62611;BMP280;48683;48.084;17.272;2023-07-29T09:43:07;99832.28;;;28.42
62611;BMP280;48683;48.084;17.272;2023-07-29T09:45:34;99831.94;;;28.27
62611;BMP280;48683;48.084;17.272;2023-07-29T09:47:59;99833.81;;;28.67
62611;BMP280;48683;48.084;17.272;2023-07-29T09:50:25;99826.63;;;28.83
62611;BMP280;48683;48.084;17.272;2023-07-29T09:52:51;99826.06;;;29.09
62611;BMP280;48683;48.084;17.272;2023-07-29T09:55:17;99819.78;;;29.27
62611;BMP280;48683;48.084;17.272;2023-07-29T09:57:42;99823.72;;;28.94
62611;BMP280;48683;48.084;17.272;2023-07-29T10:00:10;99818.78;;;28.63
62611;BMP280;48683;48.084;17.272;2023-07-29T10:02:37;99817.94;;;28.73
62611;BMP280;48683;48.084;17.272;2023-07-29T10:05:02;99818.09;;;28.81
62611;BMP280;48683;48.084;17.272;2023-07-29T10:07:28;99830.75;;;28.47
62611;BMP280;48683;48.084;17.272;2023-07-29T10:09:54;99815.38;;;28.27
62611;BMP280;48683;48.084;17.272;2023-07-29T10:12:19;99816.41;;;28.24
62611;BMP280;48683;48.084;17.272;2023-07-29T10:14:45;99823.34;;;28.36
62611;BMP280;48683;48.084;17.272;2023-07-29T10:17:12;99822.81;;;28.38
62611;BMP280;48683;48.084;17.272;2023-07-29T10:19:38;99820.75;;;28.44
62611;BMP280;48683;48.084;17.272;2023-07-29T10:22:04;99816.19;;;28.22
62611;BMP280;48683;48.084;17.272;2023-07-29T10:24:30;99818.94;;;28.22
62611;BMP280;48683;48.084;17.272;2023-07-29T10:26:57;99815.78;;;28.12
62611;BMP280;48683;48.084;17.272;2023-07-29T10:29:23;99816.00;;;28.14
62611;BMP280;48683;48.084;17.272;2023-07-29T10:31:50;99819.22;;;28.18
62611;BMP280;48683;48.084;17.272;2023-07-29T10:34:17;99825.66;;;28.26
62611;BMP280;48683;48.084;17.272;2023-07-29T10:36:42;99817.34;;;28.32
62611;BMP280;48683;48.084;17.272;2023-07-29T10:39:08;99808.50;;;28.39
62611;BMP280;48683;48.084;17.272;2023-07-29T10:47:10;99807.09;;;28.27
62611;BMP280;48683;48.084;17.272;2023-07-29T10:49:35;99809.63;;;28.25
62611;BMP280;48683;48.084;17.272;2023-07-29T10:52:00;99793.53;;;28.53
62611;BMP280;48683;48.084;17.272;2023-07-29T10:54:26;99793.13;;;28.68
62611;BMP280;48683;48.084;17.272;2023-07-29T10:56:52;99792.97;;;29.03
62611;BMP280;48683;48.084;17.272;2023-07-29T11:01:52;99774.22;;;29.52
62611;BMP280;48683;48.084;17.272;2023-07-29T11:09:42;99775.06;;;29.79
62611;BMP280;48683;48.084;17.272;2023-07-29T11:15:42;99768.63;;;29.90
62611;BMP280;48683;48.084;17.272;2023-07-29T11:20:20;99769.50;;;29.98
62611;BMP280;48683;48.084;17.272;2023-07-29T11:22:46;99764.41;;;30.15
62611;BMP280;48683;48.084;17.272;2023-07-29T11:25:12;99764.31;;;30.07
62611;BMP280;48683;48.084;17.272;2023-07-29T11:27:38;99759.00;;;30.23
62611;BMP280;48683;48.084;17.272;2023-07-29T11:30:04;99763.97;;;30.24
62611;BMP280;48683;48.084;17.272;2023-07-29T11:32:30;99749.31;;;30.42
62611;BMP280;48683;48.084;17.272;2023-07-29T11:34:55;99765.91;;;30.82
62611;BMP280;48683;48.084;17.272;2023-07-29T11:37:21;99749.81;;;30.80
62611;BMP280;48683;48.084;17.272;2023-07-29T11:39:46;99740.34;;;30.89
62611;BMP280;48683;48.084;17.272;2023-07-29T11:42:12;99751.19;;;30.87
62611;BMP280;48683;48.084;17.272;2023-07-29T11:44:37;99730.13;;;30.84
62611;BMP280;48683;48.084;17.272;2023-07-29T11:47:06;99745.78;;;30.81
62611;BMP280;48683;48.084;17.272;2023-07-29T11:49:32;99738.31;;;30.89
62611;BMP280;48683;48.084;17.272;2023-07-29T11:51:57;99737.91;;;30.72
62611;BMP280;48683;48.084;17.272;2023-07-29T11:54:23;99732.78;;;30.89
62611;BMP280;48683;48.084;17.272;2023-07-29T11:56:48;99731.59;;;30.85
62611;BMP280;48683;48.084;17.272;2023-07-29T11:59:13;99727.16;;;31.16
62611;BMP280;48683;48.084;17.272;2023-07-29T12:01:39;99719.59;;;31.16
62611;BMP280;48683;48.084;17.272;2023-07-29T12:04:04;99717.34;;;31.15
62611;BMP280;48683;48.084;17.272;2023-07-29T12:06:30;99716.25;;;30.84
62611;BMP280;48683;48.084;17.272;2023-07-29T12:08:56;99714.25;;;30.84
62611;BMP280;48683;48.084;17.272;2023-07-29T12:11:21;99715.19;;;30.87
62611;BMP280;48683;48.084;17.272;2023-07-29T12:13:46;99722.56;;;31.18
62611;BMP280;48683;48.084;17.272;2023-07-29T12:16:15;99711.00;;;31.48
62611;BMP280;48683;48.084;17.272;2023-07-29T12:18:41;99712.72;;;31.51
62611;BMP280;48683;48.084;17.272;2023-07-29T12:21:06;99711.72;;;31.62
62611;BMP280;48683;48.084;17.272;2023-07-29T12:23:32;99705.47;;;31.89
62611;BMP280;48683;48.084;17.272;2023-07-29T12:25:57;99703.22;;;31.88
62611;BMP280;48683;48.084;17.272;2023-07-29T12:28:23;99703.22;;;32.09
62611;BMP280;48683;48.084;17.272;2023-07-29T12:30:52;99696.13;;;31.79
62611;BMP280;48683;48.084;17.272;2023-07-29T12:33:36;99701.91;;;31.81
62611;BMP280;48683;48.084;17.272;2023-07-29T12:36:04;99690.38;;;31.98
62611;BMP280;48683;48.084;17.272;2023-07-29T12:38:29;99688.25;;;32.12
62611;BMP280;48683;48.084;17.272;2023-07-29T12:40:54;99683.22;;;32.10
62611;BMP280;48683;48.084;17.272;2023-07-29T12:43:20;99677.66;;;32.38
62611;BMP280;48683;48.084;17.272;2023-07-29T12:45:45;99685.50;;;32.19
62611;BMP280;48683;48.084;17.272;2023-07-29T12:48:10;99681.44;;;31.92
62611;BMP280;48683;48.084;17.272;2023-07-29T12:50:36;99679.91;;;31.42
62611;BMP280;48683;48.084;17.272;2023-07-29T12:53:02;99675.38;;;31.52
62611;BMP280;48683;48.084;17.272;2023-07-29T12:55:27;99680.13;;;31.65
62611;BMP280;48683;48.084;17.272;2023-07-29T12:57:52;99674.06;;;31.66
62611;BMP280;48683;48.084;17.272;2023-07-29T13:00:17;99667.34;;;31.41
62611;BMP280;48683;48.084;17.272;2023-07-29T13:02:43;99677.91;;;31.63
62611;BMP280;48683;48.084;17.272;2023-07-29T13:05:11;99673.66;;;31.62
62611;BMP280;48683;48.084;17.272;2023-07-29T13:07:39;99677.63;;;31.74
62611;BMP280;48683;48.084;17.272;2023-07-29T13:10:05;99671.97;;;31.59
62611;BMP280;48683;48.084;17.272;2023-07-29T13:12:30;99669.84;;;31.73
62611;BMP280;48683;48.084;17.272;2023-07-29T13:14:55;99666.66;;;31.48
62611;BMP280;48683;48.084;17.272;2023-07-29T13:17:21;99662.81;;;31.30
62611;BMP280;48683;48.084;17.272;2023-07-29T13:19:47;99670.25;;;31.15
62611;BMP280;48683;48.084;17.272;2023-07-29T13:22:12;99672.13;;;31.40
62611;BMP280;48683;48.084;17.272;2023-07-29T13:24:37;99673.09;;;31.22
62611;BMP280;48683;48.084;17.272;2023-07-29T13:27:02;99666.66;;;31.06
62611;BMP280;48683;48.084;17.272;2023-07-29T13:29:28;99678.09;;;30.90
62611;BMP280;48683;48.084;17.272;2023-07-29T13:31:53;99667.19;;;30.71
62611;BMP280;48683;48.084;17.272;2023-07-29T13:34:18;99670.31;;;30.54
62611;BMP280;48683;48.084;17.272;2023-07-29T13:36:43;99670.09;;;30.39
62611;BMP280;48683;48.084;17.272;2023-07-29T13:39:08;99685.31;;;30.33
62611;BMP280;48683;48.084;17.272;2023-07-29T13:41:34;99683.75;;;30.11
62611;BMP280;48683;48.084;17.272;2023-07-29T13:43:59;99690.75;;;30.12
62611;BMP280;48683;48.084;17.272;2023-07-29T13:46:24;99697.88;;;29.94
62611;BMP280;48683;48.084;17.272;2023-07-29T13:48:49;99710.72;;;29.47
62611;BMP280;48683;48.084;17.272;2023-07-29T13:51:14;99724.53;;;28.77
62611;BMP280;48683;48.084;17.272;2023-07-29T13:53:40;99739.13;;;28.48
62611;BMP280;48683;48.084;17.272;2023-07-29T13:56:05;99778.94;;;27.39
62611;BMP280;48683;48.084;17.272;2023-07-29T13:58:30;99794.19;;;26.94
62611;BMP280;48683;48.084;17.272;2023-07-29T14:00:55;99772.00;;;27.27
62611;BMP280;48683;48.084;17.272;2023-07-29T14:03:21;99801.69;;;26.82
62611;BMP280;48683;48.084;17.272;2023-07-29T14:05:46;99798.56;;;26.39
62611;BMP280;48683;48.084;17.272;2023-07-29T14:08:11;99793.59;;;26.37
62611;BMP280;48683;48.084;17.272;2023-07-29T14:10:36;99818.81;;;25.80